createdAt,value
2022-10-05T00:04:32.602Z,13.14451622596154
2022-10-05T00:17:44.051Z,13.195616900083612
2022-10-05T00:28:37.578Z,13.267587923285951
2022-10-05T00:35:05.041Z,13.201077811454848
2022-10-05T00:43:03.222Z,13.211558711329433
2022-10-05T00:49:54.936Z,13.233892271112039
2022-10-05T00:56:24.142Z,13.342753187709029
2022-10-05T01:02:52.283Z,13.36666231187291
2022-10-05T01:09:21.784Z,13.402149090719064
2022-10-05T01:15:50.909Z,13.404395511078596
2022-10-05T01:33:29.376Z,13.490771321070236
2022-10-05T01:40:10.866Z,13.472583742683947
2022-10-05T01:46:39.558Z,13.485481553093646
2022-10-05T01:53:10.688Z,13.481807195861203
2022-10-05T01:59:39.885Z,13.428808920359533
2022-10-05T02:06:07.306Z,13.429767192725754
2022-10-05T02:13:45.897Z,13.430472669314382
2022-10-05T02:20:14.563Z,13.429487614966558
2022-10-05T02:26:42.743Z,13.448358460493312
2022-10-05T02:38:01.252Z,13.450269779473244
2022-10-05T02:44:29.380Z,13.4468122909699
2022-10-05T02:50:57.051Z,13.474913775083612
2022-10-05T03:03:38.693Z,13.508738111413043
2022-10-05T03:10:42.456Z,13.499528375836121
2022-10-05T03:17:11.257Z,13.58893512228261
2022-10-05T03:28:40.284Z,13.585576269857858
2022-10-05T03:35:21.018Z,13.594425428511705
2022-10-05T03:44:08.725Z,13.662580345944814
2022-10-05T03:50:39.053Z,13.641122099707356
2022-10-05T03:57:11.757Z,13.635150371028429
2022-10-05T04:03:42.966Z,13.607203699832777
2022-10-05T04:10:30.406Z,13.634551369147157
2022-10-05T04:17:02.120Z,13.628391513377927
2022-10-05T04:23:42.184Z,13.6293595840301
2022-10-05T04:31:46.397Z,13.521599994774245
2022-10-05T04:38:19.935Z,13.476292720526756
2022-10-05T04:59:00.073Z,13.393052362040134
2022-10-05T05:05:29.636Z,13.439304191053512
2022-10-05T05:11:58.349Z,13.379659411580269
2022-10-05T05:24:52.968Z,13.334834213001672
2022-10-05T05:31:21.951Z,13.349311507107023
2022-10-05T05:41:58.384Z,13.393964909071908
2022-10-05T05:48:26.727Z,13.423702053720737
2022-10-05T05:59:58.334Z,13.469627926421406
2022-10-05T06:06:25.952Z,13.537793295359531
2022-10-05T06:12:53.408Z,13.537379154473244
2022-10-05T06:19:20.750Z,13.562479096989966
2022-10-05T06:32:06.581Z,13.654310592600336
2022-10-05T06:38:59.998Z,13.753377142558529
2022-10-05T06:45:27.395Z,13.798877116429766
2022-10-05T06:57:19.274Z,13.891394492056858
2022-10-05T07:03:46.373Z,13.955168269230771
2022-10-05T07:10:13.705Z,13.995904316471572
2022-10-05T07:16:41.086Z,14.043422737249164
2022-10-05T07:23:10.128Z,14.095059051003346
2022-10-05T07:29:40.554Z,14.154886078595318
2022-10-05T07:36:09.798Z,14.263082671404682
2022-10-05T07:42:47.392Z,14.303919314381274
2022-10-05T07:56:29.441Z,14.317753840928093
2022-10-05T08:03:00.582Z,14.420683528428095
2022-10-05T08:09:27.550Z,14.633361857232439
2022-10-05T08:15:54.694Z,14.795725987667225
2022-10-05T08:22:23.311Z,14.936789297658864
2022-10-05T08:29:00.793Z,14.959704222408028
2022-10-05T08:35:27.905Z,14.956320547658864
2022-10-05T08:47:03.677Z,15.171655518394648
2022-10-05T08:53:32.711Z,15.335269256897995
2022-10-05T09:00:35.990Z,15.321247909698998
2022-10-05T09:07:03.281Z,15.276503710284283
2022-10-05T09:13:33.198Z,15.260678825250835
2022-10-05T09:20:07.401Z,15.25570978783445
2022-10-05T09:26:46.712Z,15.264671300167224
2022-10-05T09:33:14.063Z,15.32202262750836
2022-10-05T09:39:45.089Z,15.36995322951505
2022-10-05T09:46:34.732Z,15.396777017140467
2022-10-05T09:53:08.217Z,15.419929060409697
2022-10-05T10:08:13.764Z,15.558533653846153
2022-10-05T10:14:42.378Z,15.571190426421406
2022-10-05T10:21:13.078Z,15.593815321906355
2022-10-05T10:30:16.687Z,15.715923521112042
2022-10-05T10:36:47.026Z,15.916587844899663
2022-10-05T10:43:20.420Z,16.148459056229097
2022-10-05T10:49:50.393Z,16.30208768812709
2022-10-05T11:02:13.824Z,16.517213628762544
2022-10-05T11:13:44.565Z,16.654323656981607
2022-10-05T11:20:12.424Z,16.76121773097826
2022-10-05T11:26:53.794Z,16.81559691158027
2022-10-05T11:34:20.869Z,16.827298677884617
2022-10-05T11:44:07.096Z,17.040172972408026
2022-10-05T11:50:34.326Z,17.03892205790134
2022-10-05T11:57:02.438Z,17.139140886287624
2022-10-05T12:06:04.195Z,17.33458598975752
2022-10-05T12:17:04.253Z,17.56032935305184
2022-10-05T12:23:33.093Z,17.57102189590301
2022-10-05T12:30:07.130Z,17.541334395903007
2022-10-05T12:41:09.792Z,17.818583429138794
2022-10-05T12:47:37.580Z,18.14485328699833
2022-10-05T13:00:28.083Z,18.15595670464047
2022-10-05T13:08:25.122Z,18.312898463628763
2022-10-05T13:14:53.431Z,18.242333821070236
2022-10-05T13:21:21.514Z,18.13753527382943
2022-10-05T13:28:01.221Z,18.12044183737458
2022-10-05T13:44:22.280Z,17.997511888586956
2022-10-05T13:50:50.321Z,17.993336512332775
2022-10-05T13:57:19.629Z,17.933723087374585
2022-10-05T14:15:56.373Z,17.785247047449833
2022-10-05T14:22:26.853Z,17.769584160744145
2022-10-05T14:30:39.397Z,17.755223792851172
2022-10-05T14:37:25.338Z,17.741788383152176
2022-10-05T14:43:56.361Z,17.757249425167227
2022-10-05T14:50:27.713Z,17.699920307274247
2022-10-05T14:56:57.917Z,17.800367762332776
2022-10-05T15:03:28.701Z,17.755668635033445
2022-10-05T15:09:59.144Z,17.81091855664716
2022-10-05T15:16:29.245Z,17.800315504807692
2022-10-05T15:23:05.396Z,17.819168060200667
2022-10-05T15:34:32.328Z,17.648163147993312
2022-10-05T15:41:01.936Z,17.712737118520067
2022-10-05T15:52:55.326Z,17.6597368833612
2022-10-05T15:59:26.098Z,17.63953608382107
2022-10-05T16:05:56.971Z,17.55555236204013
2022-10-05T16:12:28.952Z,17.478092992265886
2022-10-05T16:26:58.925Z,17.420980743102003
2022-10-05T16:33:26.347Z,17.33265442098662
2022-10-05T16:39:54.495Z,17.327435200668894
2022-10-05T16:46:27.510Z,17.266421927257525
2022-10-05T16:57:28.006Z,17.190693588001672
2022-10-05T17:03:55.269Z,17.112906955476586
2022-10-05T17:13:16.715Z,17.06629193666388
2022-10-05T17:19:45.731Z,17.146757420568562
2022-10-05T17:26:14.036Z,17.08968175167224
2022-10-05T17:32:53.652Z,17.06696605873746
2022-10-05T17:39:22.269Z,17.062521556229097
2022-10-05T17:45:49.922Z,16.915178198160532
2022-10-05T17:52:17.075Z,16.87133936036789
2022-10-05T17:58:44.450Z,16.829954013377925
2022-10-05T18:05:11.545Z,16.786463341346156
2022-10-05T18:18:41.781Z,16.76252612876254
2022-10-05T18:25:09.093Z,16.758592443561874
2022-10-05T18:31:42.862Z,16.73790564903846
2022-10-05T18:42:09.481Z,16.72527369878763
2022-10-05T18:48:38.545Z,16.747697402801002
2022-10-05T18:55:08.275Z,16.78114156563545
2022-10-05T19:01:45.787Z,16.795893211747494
2022-10-05T19:08:18.687Z,16.799866090091975
2022-10-05T19:14:49.805Z,16.821206103678932
2022-10-05T19:21:18.107Z,16.850450721153845
2022-10-05T19:27:49.743Z,16.90956443352843
2022-10-05T19:38:01.900Z,16.951708821070234
2022-10-05T19:44:31.099Z,17.015165133779266
2022-10-05T19:59:58.622Z,17.230937761287624
2022-10-05T20:06:26.757Z,17.395887985994985
2022-10-05T20:12:55.227Z,17.493109192098665
2022-10-05T20:19:24.969Z,17.433514057274245
2022-10-05T20:27:25.253Z,17.272655596780936
2022-10-05T20:34:01.032Z,17.274438884824413
2022-10-05T20:40:29.394Z,17.24761379076087
2022-10-05T20:52:13.311Z,17.19455541910535
2022-10-05T20:58:40.977Z,17.219957802048494
2022-10-05T21:12:15.743Z,17.18248719690635
2022-10-05T21:18:43.466Z,17.154630669941472
2022-10-05T21:27:23.519Z,17.17108460493311
2022-10-05T21:40:10.712Z,17.17128710284281
2022-10-05T21:46:39.677Z,17.206497570025082
2022-10-05T21:53:07.589Z,17.23662599289298
2022-10-05T22:05:55.165Z,17.26292524561037
2022-10-05T22:12:31.613Z,17.387828569188965
2022-10-05T22:18:59.488Z,17.339392375627085
2022-10-05T22:25:27.836Z,17.112833794941473
2022-10-05T22:33:59.207Z,16.069129520275922
2022-10-05T22:40:27.184Z,15.812002900292645
2022-10-05T22:46:55.103Z,15.726305131688964
2022-10-05T22:53:30.167Z,15.57323108277592
2022-10-05T22:59:57.511Z,15.55804308632943
2022-10-05T23:06:28.215Z,15.541746577132107
2022-10-05T23:13:00.491Z,15.540698813754181
2022-10-05T23:19:28.690Z,15.520707697533442
2022-10-05T23:25:56.050Z,15.464218619356187
2022-10-05T23:32:32.008Z,15.354586904264215
2022-10-05T23:38:59.163Z,15.288561480978263
2022-10-05T23:45:26.506Z,15.220019204640467
2022-10-05T23:51:53.716Z,15.147049409489966
2022-10-05T23:58:21.632Z,15.038920751463213
